Time;durP1;ratioP1;P1;durP2;ratioP2;P2;SDS_P1;SDS_P2;PMS_P1;PMS_P2;Temp;Humidity;BMP_temperature;BMP_pressure;BME280_temperature;BME280_humidity;BME280_pressure;Samples;Min_cycle;Max_cycle;Signal;HPM_P1;HPM_P2
2022/12/29 00:00:07;;;;;;;4.82;1.60;;;;;;;10.35;94.99;100015.47;5046910;28;20049;-81
2022/12/29 00:02:41;;;;;;;3.35;1.90;;;;;;;10.36;95.15;100012.81;5050488;28;20037;-81
2022/12/29 00:05:09;;;;;;;4.70;1.67;;;;;;;10.36;95.18;100007.53;5039547;28;20043;-80
2022/12/29 00:07:36;;;;;;;2.72;1.92;;;;;;;10.38;95.21;100010.13;5048985;28;20088;-80
2022/12/29 00:10:05;;;;;;;3.55;2.15;;;;;;;10.40;95.23;100008.28;5049569;28;20037;-80
2022/12/29 00:15:36;;;;;;;2.10;1.80;;;;;;;10.39;95.51;99996.88;5051329;28;20042;-82
2022/12/29 00:15:37;;;;;;;2.28;1.73;;;;;;;10.40;95.54;99992.47;5050437;28;20049;-82
2022/12/29 00:18:06;;;;;;;3.83;1.90;;;;;;;10.40;95.61;99989.84;5050136;28;20038;-81
2022/12/29 00:44:04;;;;;;;2.13;0.60;;;;;;;10.30;94.88;99988.50;5061412;28;20045;-74
2022/12/29 00:45:41;;;;;;;0.60;0.47;;;;;;;10.17;95.35;99967.94;5048981;28;20115;-75
2022/12/29 00:48:08;;;;;;;1.98;0.65;;;;;;;10.14;95.63;99962.78;5049458;28;20099;-75
2022/12/29 00:50:36;;;;;;;1.02;0.60;;;;;;;10.16;95.71;99966.22;5048954;28;20369;-75
2022/12/29 00:53:03;;;;;;;1.88;0.77;;;;;;;10.14;96.01;99967.22;5049570;28;20041;-75
2022/12/29 00:55:31;;;;;;;1.50;0.90;;;;;;;10.08;96.25;99958.63;5049281;28;20045;-74
2022/12/29 00:57:59;;;;;;;1.42;0.80;;;;;;;10.05;96.62;99945.63;5050954;28;20049;-74
2022/12/29 01:00:26;;;;;;;1.52;1.10;;;;;;;10.04;96.93;99959.72;5046784;28;20052;-74
2022/12/29 01:02:55;;;;;;;1.98;1.20;;;;;;;10.03;97.23;99954.47;5066232;28;20045;-73
2022/12/29 01:05:22;;;;;;;1.88;1.50;;;;;;;10.05;97.63;99966.69;5049398;28;20041;-74
2022/12/29 01:07:49;;;;;;;2.10;1.60;;;;;;;10.04;97.91;99956.19;5044877;28;20048;-75
2022/12/29 01:10:16;;;;;;;2.55;2.10;;;;;;;10.06;98.36;99943.84;5047644;28;20038;-75
2022/12/29 01:12:44;;;;;;;2.15;1.95;;;;;;;10.03;98.43;99949.22;5050628;28;20568;-75
2022/12/29 01:15:14;;;;;;;4.22;2.33;;;;;;;10.06;98.63;99930.66;5049446;28;20068;-77
2022/12/29 01:17:42;;;;;;;2.20;2.00;;;;;;;10.08;99.29;99928.81;5038319;28;20048;-79
2022/12/29 01:20:11;;;;;;;4.97;2.25;;;;;;;10.10;99.31;99921.72;5044693;28;20033;-78
2022/12/29 01:22:39;;;;;;;3.08;1.83;;;;;;;10.12;99.33;99929.53;5050464;28;20410;-78
2022/12/29 01:25:07;;;;;;;4.40;2.03;;;;;;;10.14;99.55;99930.34;5037915;28;20041;-79
2022/12/29 01:27:34;;;;;;;2.42;1.92;;;;;;;10.15;99.81;99925.00;5049924;28;20467;-79
2022/12/29 01:30:02;;;;;;;3.72;1.80;;;;;;;10.17;99.85;99917.91;5048667;28;20045;-77
2022/12/29 01:32:31;;;;;;;1.95;1.73;;;;;;;10.18;99.85;99906.44;5050762;28;20083;-79
2022/12/29 01:34:58;;;;;;;2.17;1.60;;;;;;;10.20;99.73;99911.63;5053036;28;20077;-81
2022/12/29 01:37:25;;;;;;;2.03;1.50;;;;;;;10.17;99.46;99910.00;5052447;28;20059;-80
2022/12/29 01:39:52;;;;;;;1.80;1.50;;;;;;;10.12;99.30;99909.34;5067013;28;20045;-82
2022/12/29 01:42:26;;;;;;;1.48;1.33;;;;;;;10.13;99.41;99910.19;5050649;28;20068;-80
2022/12/29 01:44:57;;;;;;;2.22;1.40;;;;;;;10.12;99.40;99897.94;5049395;28;20073;-81
2022/12/29 01:47:48;;;;;;;1.95;1.30;;;;;;;10.15;99.50;99893.41;5051135;28;20103;-81
2022/12/29 01:50:33;;;;;;;2.03;1.30;;;;;;;10.16;99.37;99892.47;5060229;28;20121;-81
2022/12/29 01:53:17;;;;;;;1.67;1.00;;;;;;;10.17;98.86;99878.38;5063804;28;20045;-79
2022/12/29 01:55:59;;;;;;;3.55;1.30;;;;;;;10.15;98.62;99884.66;5046974;28;20041;-81
2022/12/29 01:58:36;;;;;;;2.25;0.95;;;;;;;10.09;98.35;99872.59;5052992;28;20571;-81
2022/12/29 02:01:04;;;;;;;2.75;1.00;;;;;;;10.08;98.46;99871.72;5065483;28;20036;-80
2022/12/29 02:03:34;;;;;;;2.45;0.90;;;;;;;10.08;98.33;99876.16;5050785;28;20199;-80
2022/12/29 02:06:16;;;;;;;1.67;0.88;;;;;;;10.09;98.26;99876.09;5048841;28;20528;-80
2022/12/29 02:08:47;;;;;;;0.82;0.68;;;;;;;10.13;97.67;99879.44;5048514;28;22152;-80
2022/12/29 02:11:16;;;;;;;1.77;0.68;;;;;;;10.14;97.72;99889.03;5049285;28;20097;-80
2022/12/29 02:13:43;;;;;;;2.55;0.80;;;;;;;10.16;97.60;99889.00;5050065;28;20411;-80
2022/12/29 02:16:35;;;;;;;1.33;0.65;;;;;;;10.21;97.20;99893.16;5040326;28;20039;-83
2022/12/29 02:19:47;;;;;;;1.48;0.63;;;;;;;10.26;96.73;99890.31;5065808;28;20407;-83
2022/12/29 02:22:35;;;;;;;3.08;0.77;;;;;;;10.32;96.54;99883.91;5049263;28;20033;-83
2022/12/29 02:25:25;;;;;;;1.35;0.70;;;;;;;10.36;96.48;99882.84;5039001;28;20096;-82
2022/12/29 02:28:28;;;;;;;2.25;0.68;;;;;;;10.39;96.35;99874.84;5065155;28;20044;-81
2022/12/29 02:31:00;;;;;;;1.23;0.77;;;;;;;10.45;95.52;99881.59;5042143;28;20711;-84
2022/12/29 02:33:38;;;;;;;4.32;0.80;;;;;;;10.49;94.98;99875.25;5071797;28;20117;-83
2022/12/29 02:36:39;;;;;;;2.63;0.57;;;;;;;10.53;94.56;99884.75;5071411;28;20045;-83
2022/12/29 02:39:22;;;;;;;2.47;0.80;;;;;;;10.56;94.57;99880.19;5042610;28;20077;-79
2022/12/29 02:42:15;;;;;;;3.05;0.90;;;;;;;10.59;94.40;99873.06;5050079;28;20129;-79
2022/12/29 02:45:13;;;;;;;2.85;0.70;;;;;;;10.62;93.78;99875.56;5054063;28;20045;-86
2022/12/29 02:48:01;;;;;;;2.47;0.60;;;;;;;10.60;93.40;99872.16;5052833;28;20057;-78
2022/12/29 02:50:59;;;;;;;2.55;0.70;;;;;;;10.59;93.00;99871.28;5037891;28;20096;-78
2022/12/29 02:56:14;;;;;;;2.65;0.60;;;;;;;10.51;92.98;99874.28;5062655;28;20899;-77
2022/12/29 02:58:41;;;;;;;2.17;0.60;;;;;;;10.52;92.35;99864.59;5068591;28;20085;-79
2022/12/29 03:01:36;;;;;;;2.33;0.90;;;;;;;10.57;92.43;99860.81;5050948;28;20506;-81
2022/12/29 03:04:12;;;;;;;2.13;1.13;;;;;;;10.58;92.13;99866.97;5066915;28;20038;-79
2022/12/29 03:07:27;;;;;;;4.90;0.75;;;;;;;10.57;91.94;99865.25;5047529;28;20044;-76
2022/12/29 03:10:44;;;;;;;3.10;0.70;;;;;;;10.51;91.99;99861.13;5040515;28;20049;-77
2022/12/29 03:16:22;;;;;;;3.97;0.82;;;;;;;10.54;91.78;99858.31;5044080;28;20053;-79
2022/12/29 03:19:21;;;;;;;2.97;1.13;;;;;;;10.53;92.08;99853.97;5032371;28;20045;-81
2022/12/29 03:25:07;;;;;;;1.85;0.80;;;;;;;10.54;91.79;99858.31;5064708;28;20069;-79
2022/12/29 03:27:45;;;;;;;2.22;0.88;;;;;;;10.57;91.91;99863.44;5046594;28;20046;-78
2022/12/29 03:30:14;;;;;;;2.65;0.70;;;;;;;10.57;91.93;99858.19;5045380;28;20041;-78
2022/12/29 03:32:54;;;;;;;1.20;0.57;;;;;;;10.56;91.62;99864.38;5042019;28;20134;-79
2022/12/29 03:35:29;;;;;;;1.75;0.60;;;;;;;10.56;92.07;99861.75;5065981;28;20041;-79
2022/12/29 03:38:14;;;;;;;2.83;0.52;;;;;;;10.57;91.97;99852.91;5048809;28;20096;-78
2022/12/29 03:40:48;;;;;;;2.55;0.70;;;;;;;10.58;92.41;99856.41;5040922;28;20030;-78
2022/12/29 03:43:17;;;;;;;2.78;0.80;;;;;;;10.59;92.35;99844.09;5047241;28;20464;-78
2022/12/29 03:45:46;;;;;;;3.08;0.60;;;;;;;10.59;92.25;99847.56;5058619;28;20081;-79
2022/12/29 03:48:13;;;;;;;1.23;0.60;;;;;;;10.59;92.15;99844.09;5041182;28;20464;-79
2022/12/29 03:50:41;;;;;;;3.22;0.60;;;;;;;10.60;92.06;99840.53;5040527;28;20085;-78
2022/12/29 03:53:08;;;;;;;1.40;0.60;;;;;;;10.59;92.04;99836.19;5065771;28;20049;-78
2022/12/29 03:55:38;;;;;;;2.03;0.70;;;;;;;10.57;92.17;99836.25;5065537;28;20037;-78
2022/12/29 03:58:05;;;;;;;1.00;0.40;;;;;;;10.54;92.27;99826.69;5049748;28;20088;-79
2022/12/29 04:00:48;;;;;;;3.55;0.65;;;;;;;10.49;92.04;99841.88;5047531;28;20041;-77
2022/12/29 04:03:15;;;;;;;2.33;0.52;;;;;;;10.44;92.13;99830.69;5050109;28;20108;-78
2022/12/29 04:05:44;;;;;;;2.28;0.70;;;;;;;10.37;92.17;99842.41;5048389;28;20120;-78
2022/12/29 04:08:11;;;;;;;2.35;0.50;;;;;;;10.32;92.44;99845.22;5041059;28;20068;-77
2022/12/29 04:10:39;;;;;;;3.55;0.80;;;;;;;10.29;92.87;99839.25;5043491;28;20083;-77
2022/12/29 04:13:06;;;;;;;3.50;0.60;;;;;;;10.28;92.41;99841.03;5052560;28;20050;-81
2022/12/29 04:15:34;;;;;;;1.42;0.50;;;;;;;10.27;92.55;99831.44;5060415;28;20073;-83
2022/12/29 04:18:02;;;;;;;1.88;0.50;;;;;;;10.30;92.27;99846.25;5047464;28;20546;-82
2022/12/29 04:23:34;;;;;;;3.08;0.60;;;;;;;10.27;91.99;99857.78;5022997;28;20065;-82
2022/12/29 04:26:09;;;;;;;3.17;0.60;;;;;;;10.26;92.17;99871.88;5045322;28;20092;-83
2022/12/29 04:28:55;;;;;;;4.13;0.60;;;;;;;10.26;91.96;99880.63;5044149;28;20525;-82
2022/12/29 04:31:45;;;;;;;3.67;0.50;;;;;;;10.24;91.98;99874.56;5048922;28;20093;-86
2022/12/29 04:34:13;;;;;;;3.10;0.70;;;;;;;10.22;92.08;99871.16;5048411;28;20491;-76
2022/12/29 04:36:40;;;;;;;5.18;0.60;;;;;;;10.20;91.74;99864.22;5045918;28;20049;-75
2022/12/29 04:39:07;;;;;;;3.17;0.80;;;;;;;10.14;91.66;99859.22;5061898;28;20030;-77
2022/12/29 04:41:37;;;;;;;4.53;0.57;;;;;;;10.06;92.06;99855.16;5061966;28;20042;-76
2022/12/29 04:44:06;;;;;;;4.47;0.70;;;;;;;9.99;92.19;99858.97;5060365;28;20424;-74
2022/12/29 04:46:54;;;;;;;3.35;0.65;;;;;;;9.93;92.20;99873.25;5054124;28;20091;-79
2022/12/29 04:49:44;;;;;;;2.30;0.50;;;;;;;9.85;92.52;99878.00;5048247;28;20060;-84
2022/12/29 04:52:35;;;;;;;6.85;0.70;;;;;;;9.79;92.25;99876.47;5047818;28;20057;-80
2022/12/29 04:55:04;;;;;;;5.25;0.50;;;;;;;9.75;92.00;99872.28;5049119;28;20054;-80
2022/12/29 04:57:32;;;;;;;1.83;0.50;;;;;;;9.72;92.12;99872.41;5047643;28;20823;-81
2022/12/29 05:00:01;;;;;;;4.40;0.70;;;;;;;9.66;92.09;99877.06;5063566;28;20902;-82
2022/12/29 05:02:28;;;;;;;4.28;0.95;;;;;;;9.55;91.75;99878.38;5046140;28;20041;-82
2022/12/29 05:04:56;;;;;;;3.38;0.60;;;;;;;9.45;92.08;99885.81;5048264;28;20045;-82
2022/12/29 05:07:24;;;;;;;6.40;0.60;;;;;;;9.39;91.92;99880.78;5054665;28;20045;-81
2022/12/29 05:09:53;;;;;;;4.10;0.75;;;;;;;9.33;91.98;99875.78;5035375;28;20050;-82
2022/12/29 05:12:20;;;;;;;3.83;0.55;;;;;;;9.26;92.07;99871.69;5044205;28;20053;-82
2022/12/29 05:14:54;;;;;;;;;;;;;;;9.16;91.93;99879.91;5047739;28;20091;-83
2022/12/29 05:17:21;;;;;;;2.92;0.60;;;;;;;9.14;91.60;99900.19;5063174;28;20072;-81
2022/12/29 05:19:48;;;;;;;5.95;0.75;;;;;;;9.11;91.56;99897.66;5050760;28;20049;-82
2022/12/29 05:22:17;;;;;;;5.38;0.80;;;;;;;9.12;91.26;99902.00;5049679;28;20144;-81
2022/12/29 05:24:45;;;;;;;5.88;0.85;;;;;;;9.17;91.11;99905.28;5051428;28;20121;-82
2022/12/29 05:27:13;;;;;;;5.53;0.85;;;;;;;9.19;90.67;99905.25;5052218;28;20069;-83
2022/12/29 05:30:04;;;;;;;6.55;0.90;;;;;;;9.20;90.57;99927.13;5065423;28;20042;-80
2022/12/29 05:32:31;;;;;;;5.40;0.90;;;;;;;9.16;90.41;99924.63;5061966;28;20046;-78
2022/12/29 05:34:59;;;;;;;5.72;0.80;;;;;;;9.13;90.47;99932.66;5058971;28;20100;-79
2022/12/29 05:37:26;;;;;;;6.03;0.88;;;;;;;9.10;89.93;99929.28;5042274;28;20045;-78
2022/12/29 05:39:53;;;;;;;4.15;0.70;;;;;;;9.08;90.28;99946.88;5046870;28;20061;-78
2022/12/29 05:42:22;;;;;;;6.95;0.80;;;;;;;9.05;90.28;99955.75;5047606;28;20095;-81
2022/12/29 05:45:07;;;;;;;5.90;0.88;;;;;;;9.02;90.13;99950.59;5054250;28;20176;-84
2022/12/29 05:48:05;;;;;;;3.70;0.70;;;;;;;9.01;90.16;99952.38;5061734;28;20038;-84
2022/12/29 05:50:50;;;;;;;4.93;0.60;;;;;;;8.98;90.21;99960.38;5029755;28;20077;-81
2022/12/29 05:53:24;;;;;;;4.72;0.75;;;;;;;8.97;90.53;99968.31;5064609;28;20033;-80
2022/12/29 05:55:52;;;;;;;4.00;1.13;;;;;;;9.02;91.24;99966.38;5067231;28;20056;-78
2022/12/29 05:58:21;;;;;;;7.28;1.35;;;;;;;9.11;91.25;99962.53;5067705;28;20034;-77
2022/12/29 06:00:48;;;;;;;3.72;0.60;;;;;;;9.19;90.81;99970.13;5048566;28;20135;-78
2022/12/29 06:03:16;;;;;;;5.22;0.70;;;;;;;9.29;90.47;99967.09;5049478;28;20046;-79
2022/12/29 06:05:46;;;;;;;4.07;0.68;;;;;;;9.34;90.37;99964.28;5061440;28;20041;-80
2022/12/29 06:08:16;;;;;;;4.97;0.80;;;;;;;9.37;90.08;99966.78;5077348;28;20034;-82
2022/12/29 06:10:43;;;;;;;4.78;0.70;;;;;;;9.40;90.13;99973.72;5059049;28;20034;-80
2022/12/29 06:13:10;;;;;;;2.75;0.55;;;;;;;9.51;89.72;99983.81;5070117;28;20033;-80
2022/12/29 06:15:42;;;;;;;2.95;0.70;;;;;;;9.58;89.80;99977.38;5042221;28;20124;-79
2022/12/29 06:18:09;;;;;;;3.45;1.27;;;;;;;9.67;89.87;99973.53;5062215;28;20042;-81
2022/12/29 06:20:45;;;;;;;4.88;0.80;;;;;;;9.76;88.71;99975.78;5063453;28;20038;-77
2022/12/29 06:23:18;;;;;;;3.83;0.70;;;;;;;9.83;87.97;99976.38;5043619;28;20045;-77
2022/12/29 06:25:49;;;;;;;5.97;0.77;;;;;;;9.86;87.99;99982.38;5066847;28;20124;-77
2022/12/29 06:28:17;;;;;;;2.78;0.60;;;;;;;9.95;87.85;99974.09;5046862;28;20037;-75
2022/12/29 06:30:45;;;;;;;9.23;0.80;;;;;;;10.01;87.76;99969.50;5051014;28;20052;-75
2022/12/29 06:33:13;;;;;;;5.63;0.60;;;;;;;10.06;87.38;99967.53;5052729;28;20048;-76
2022/12/29 06:35:42;;;;;;;4.20;0.75;;;;;;;10.12;87.46;99984.84;5050450;28;20045;-76
2022/12/29 06:38:09;;;;;;;3.72;0.50;;;;;;;10.16;86.30;99973.28;5047383;28;21185;-76
2022/12/29 06:40:37;;;;;;;3.78;0.73;;;;;;;10.17;85.95;99959.19;5046602;28;20135;-77
2022/12/29 06:43:37;;;;;;;7.32;1.10;;;;;;;10.13;85.65;99962.88;5044611;28;20119;-78
2022/12/29 06:46:15;;;;;;;3.35;0.50;;;;;;;10.04;85.20;99959.72;5052197;28;20109;-77
2022/12/29 06:48:47;;;;;;;4.10;0.70;;;;;;;9.98;84.82;99961.72;5065775;28;20127;-78
2022/12/29 06:51:14;;;;;;;4.30;0.60;;;;;;;9.93;84.74;99960.13;5048908;28;20121;-75
2022/12/29 06:53:43;;;;;;;4.20;0.70;;;;;;;9.92;84.40;99953.16;5049156;28;20049;-77
2022/12/29 06:56:10;;;;;;;3.08;0.50;;;;;;;9.94;84.32;99948.69;5050431;28;20041;-77
2022/12/29 06:58:37;;;;;;;3.90;0.70;;;;;;;9.91;84.54;99956.75;5048969;28;20044;-77
2022/12/29 07:01:04;;;;;;;4.45;0.65;;;;;;;9.88;84.32;99969.16;5048934;28;20042;-77
2022/12/29 07:03:32;;;;;;;4.90;1.27;;;;;;;9.89;83.22;99979.63;5049859;28;20038;-76
2022/12/29 07:05:59;;;;;;;4.75;0.73;;;;;;;9.87;82.75;99976.19;5049127;28;20033;-75
2022/12/29 07:08:26;;;;;;;4.75;0.80;;;;;;;9.86;83.33;99973.66;5050213;28;20033;-76
2022/12/29 07:10:53;;;;;;;6.18;0.90;;;;;;;9.88;82.54;99982.31;5046302;28;20065;-79
2022/12/29 07:13:20;;;;;;;5.07;0.88;;;;;;;9.87;82.67;99984.09;5050080;28;20041;-80
2022/12/29 07:15:47;;;;;;;5.65;1.05;;;;;;;9.83;82.07;99976.38;5051099;28;20045;-82
2022/12/29 07:18:14;;;;;;;5.18;1.98;;;;;;;9.74;82.04;99980.25;5047694;28;20585;-82
2022/12/29 07:20:43;;;;;;;7.00;2.35;;;;;;;9.71;81.53;99989.13;5045771;28;20046;-82
2022/12/29 07:23:10;;;;;;;8.68;1.23;;;;;;;9.66;81.38;99972.69;5052080;28;20041;-82
2022/12/29 07:25:37;;;;;;;6.47;2.58;;;;;;;9.64;81.95;99980.63;5050831;28;20530;-81
2022/12/29 07:28:04;;;;;;;6.03;1.65;;;;;;;9.68;82.40;99996.28;5050286;28;20042;-82
2022/12/29 07:30:32;;;;;;;8.88;4.53;;;;;;;9.73;82.69;100004.84;5050199;28;20110;-81
2022/12/29 07:33:00;;;;;;;9.93;3.17;;;;;;;9.77;82.46;100014.34;5046745;28;20037;-84
2022/12/29 07:35:27;;;;;;;4.85;1.00;;;;;;;9.80;81.59;100016.88;5048360;28;20537;-83
2022/12/29 07:37:54;;;;;;;5.00;1.10;;;;;;;9.85;81.20;100012.25;5048328;28;20072;-86
2022/12/29 07:40:21;;;;;;;5.57;1.35;;;;;;;9.90;81.46;100012.94;5048910;28;20033;-82
2022/12/29 07:42:48;;;;;;;14.38;8.20;;;;;;;9.93;81.33;100023.31;5051949;28;20099;-86
2022/12/29 07:45:17;;;;;;;11.93;6.63;;;;;;;9.93;81.74;100017.22;5054045;28;20468;-82
2022/12/29 07:47:55;;;;;;;8.68;4.20;;;;;;;9.97;79.72;100039.84;5058144;28;20060;-85
2022/12/29 07:50:22;;;;;;;8.30;3.38;;;;;;;9.89;80.13;100027.03;5057085;28;20045;-82
2022/12/29 07:52:49;;;;;;;8.65;2.28;;;;;;;9.92;79.58;100032.16;5055336;28;20500;-83
2022/12/29 07:55:18;;;;;;;5.55;1.10;;;;;;;9.92;79.12;100029.50;5058853;28;20105;-84
2022/12/29 07:57:47;;;;;;;6.47;1.60;;;;;;;9.90;78.84;100038.41;5056086;28;20174;-79
2022/12/29 08:00:14;;;;;;;5.43;1.20;;;;;;;9.84;78.44;100028.97;5051078;28;20046;-81
2022/12/29 08:02:41;;;;;;;6.85;1.70;;;;;;;9.80;78.11;100043.19;5054417;28;20140;-83
2022/12/29 08:05:08;;;;;;;5.80;1.30;;;;;;;9.76;77.83;100028.44;5056744;28;20033;-79
2022/12/29 08:07:36;;;;;;;7.15;2.40;;;;;;;9.70;78.16;100039.22;5058765;28;20132;-82
2022/12/29 08:10:04;;;;;;;9.40;1.33;;;;;;;9.67;78.38;100039.31;5048464;28;20045;-81
2022/12/29 08:12:32;;;;;;;5.85;0.90;;;;;;;9.68;77.91;100041.88;5049705;28;20503;-78
2022/12/29 08:14:59;;;;;;;7.03;1.27;;;;;;;9.75;78.42;100059.16;5054994;28;20037;-81
2022/12/29 08:17:26;;;;;;;7.40;1.10;;;;;;;9.81;78.45;100039.63;5068413;28;20041;-80
2022/12/29 08:19:54;;;;;;;7.40;1.52;;;;;;;9.86;78.80;100048.19;5059434;28;20148;-79
2022/12/29 08:22:23;;;;;;;5.63;1.17;;;;;;;9.90;78.28;100057.69;5067365;28;20044;-82
2022/12/29 08:24:51;;;;;;;6.60;0.95;;;;;;;9.98;77.74;100060.00;5050469;28;20053;-78
2022/12/29 08:27:19;;;;;;;6.47;1.25;;;;;;;9.99;78.22;100060.88;5058956;28;20045;-80
2022/12/29 08:29:47;;;;;;;7.68;1.20;;;;;;;10.02;78.19;100061.59;5044221;28;20113;-79
2022/12/29 08:32:16;;;;;;;5.22;1.15;;;;;;;10.06;78.04;100068.47;5050715;28;20096;-82
2022/12/29 08:34:43;;;;;;;7.85;1.05;;;;;;;10.10;78.22;100061.31;5066673;28;20041;-80
2022/12/29 08:37:11;;;;;;;8.10;1.70;;;;;;;10.10;77.86;100056.88;5065367;28;20487;-80
2022/12/29 08:39:39;;;;;;;8.13;1.83;;;;;;;10.13;77.99;100063.78;5053571;28;20065;-81
2022/12/29 08:42:06;;;;;;;8.20;1.50;;;;;;;10.17;77.87;100054.00;5051144;28;20041;-81
2022/12/29 08:44:36;;;;;;;8.52;2.25;;;;;;;10.21;77.50;100060.84;5047077;28;20041;-81
2022/12/29 08:47:06;;;;;;;7.03;1.30;;;;;;;10.26;77.46;100057.09;5056343;28;20055;-82
2022/12/29 08:49:33;;;;;;;8.63;1.20;;;;;;;10.32;76.52;100063.91;5063608;28;20033;-82
2022/12/29 08:52:00;;;;;;;11.48;5.20;;;;;;;10.34;75.51;100059.44;5050033;28;20581;-80
2022/12/29 08:54:27;;;;;;;5.07;0.98;;;;;;;10.34;74.33;100048.88;5048531;28;20055;-81
2022/12/29 08:56:54;;;;;;;9.43;2.15;;;;;;;10.35;74.90;100062.91;5070846;28;20080;-81
2022/12/29 08:59:26;;;;;;;6.43;1.20;;;;;;;10.37;75.18;100064.63;5062275;28;20045;-77
2022/12/29 09:01:53;;;;;;;5.70;1.00;;;;;;;10.44;75.49;100053.81;5049759;28;20045;-81
2022/12/29 09:04:20;;;;;;;8.98;1.55;;;;;;;10.53;75.25;100056.03;5066458;28;20498;-83
2022/12/29 09:06:48;;;;;;;6.53;1.00;;;;;;;10.63;75.65;100065.28;5067101;28;20072;-80
2022/12/29 09:09:15;;;;;;;4.65;1.08;;;;;;;10.72;75.18;100051.69;5063914;28;20041;-83
2022/12/29 09:11:43;;;;;;;5.70;1.02;;;;;;;10.82;74.93;100057.44;5049459;28;20061;-80
2022/12/29 09:14:10;;;;;;;4.60;0.95;;;;;;;10.87;74.88;100065.97;5063860;28;20091;-80
2022/12/29 09:16:39;;;;;;;6.45;1.10;;;;;;;10.88;75.02;100061.59;5051008;28;20150;-77
2022/12/29 09:19:07;;;;;;;10.18;1.48;;;;;;;10.88;74.42;100059.78;5056391;28;20080;-84
2022/12/29 09:21:34;;;;;;;9.88;1.48;;;;;;;10.89;73.99;100052.72;5050759;28;20068;-84
2022/12/29 09:24:02;;;;;;;7.13;1.40;;;;;;;10.93;73.80;100067.50;5052303;28;20054;-82
2022/12/29 09:26:29;;;;;;;8.23;1.92;;;;;;;11.00;72.07;100057.53;5068624;28;20045;-81
2022/12/29 09:28:56;;;;;;;7.72;1.00;;;;;;;11.01;73.04;100064.53;5055189;28;20064;-81
2022/12/29 09:31:24;;;;;;;7.82;1.45;;;;;;;10.99;73.46;100064.56;5052233;28;20042;-78
2022/12/29 09:33:52;;;;;;;5.35;1.25;;;;;;;10.97;73.72;100060.31;5055694;28;20763;-81
2022/12/29 09:36:20;;;;;;;4.32;1.13;;;;;;;10.97;73.83;100061.19;5069411;28;20041;-82
2022/12/29 09:38:47;;;;;;;7.80;1.17;;;;;;;10.99;73.74;100066.38;5058258;28;20388;-81
2022/12/29 09:41:42;;;;;;;5.03;1.00;;;;;;;11.08;72.63;100080.94;5053228;28;20033;-81
2022/12/29 09:44:46;;;;;;;5.30;1.08;;;;;;;11.11;73.08;100079.03;5050422;28;20418;-80
2022/12/29 09:47:19;;;;;;;8.07;1.00;;;;;;;11.16;73.19;100090.22;5055740;28;20094;-77
2022/12/29 09:49:53;;;;;;;7.78;1.10;;;;;;;11.23;72.31;100096.06;5046583;28;20046;-81
2022/12/29 09:52:29;;;;;;;7.30;1.02;;;;;;;11.19;72.91;100105.91;5069388;28;20071;-81
2022/12/29 09:55:02;;;;;;;9.07;1.33;;;;;;;11.16;72.89;100110.47;5056441;28;20533;-79
2022/12/29 09:57:49;;;;;;;6.97;1.00;;;;;;;11.14;73.15;100101.75;5065302;28;20588;-78
2022/12/29 10:00:28;;;;;;;6.18;1.20;;;;;;;11.08;74.05;100113.44;5058449;28;20045;-80
2022/12/29 10:03:05;;;;;;;9.18;1.10;;;;;;;11.03;73.36;100121.56;5055410;28;20116;-83
2022/12/29 10:06:13;;;;;;;6.57;1.10;;;;;;;10.99;73.55;100122.59;5066191;28;20064;-80
2022/12/29 10:09:25;;;;;;;5.93;1.10;;;;;;;10.98;73.94;100125.31;5070508;28;20047;-80
2022/12/29 10:12:25;;;;;;;7.43;1.10;;;;;;;10.98;73.75;100133.22;5048516;28;20049;-80
2022/12/29 10:15:13;;;;;;;9.73;1.27;;;;;;;10.90;74.23;100133.53;5062773;28;20041;-78
2022/12/29 10:18:18;;;;;;;9.65;1.10;;;;;;;10.86;74.06;100131.97;5063583;28;20037;-78
2022/12/29 10:21:13;;;;;;;6.97;1.00;;;;;;;10.80;74.33;100138.38;5055803;28;20077;-77
2022/12/29 10:23:45;;;;;;;6.45;1.77;;;;;;;10.80;75.08;100146.28;5061239;28;20521;-75
2022/12/29 10:26:24;;;;;;;7.30;3.25;;;;;;;10.85;75.34;100135.53;5051874;28;20870;-80
2022/12/29 10:29:03;;;;;;;6.97;2.00;;;;;;;10.82;75.56;100156.75;5060363;28;20063;-77
2022/12/29 10:31:44;;;;;;;7.07;1.17;;;;;;;10.77;75.42;100159.59;5058618;28;20116;-78
2022/12/29 10:34:29;;;;;;;9.02;1.77;;;;;;;10.70;76.21;100166.88;5053771;28;20038;-79
2022/12/29 10:37:25;;;;;;;12.32;4.82;;;;;;;10.64;76.42;100161.88;5056117;28;20531;-80
2022/12/29 10:40:19;;;;;;;3.42;0.80;;;;;;;10.63;76.63;100172.50;5060210;28;20514;-80
2022/12/29 10:42:54;;;;;;;7.25;1.00;;;;;;;10.59;77.30;100184.06;5054428;28;20117;-81
2022/12/29 10:45:27;;;;;;;8.95;2.20;;;;;;;10.49;77.63;100171.28;5050263;28;20095;-81
2022/12/29 10:48:03;;;;;;;6.47;1.23;;;;;;;10.49;78.26;100186.22;5079866;28;20045;-81
2022/12/29 10:50:33;;;;;;;6.57;1.23;;;;;;;10.50;78.03;100191.44;5057228;28;20076;-81
2022/12/29 10:53:05;;;;;;;5.60;1.08;;;;;;;10.48;78.42;100195.06;5049167;28;20049;-81
2022/12/29 10:55:37;;;;;;;6.72;1.27;;;;;;;10.46;78.95;100212.72;5056007;28;20112;-80
2022/12/29 10:58:13;;;;;;;5.65;1.00;;;;;;;10.43;79.13;100205.75;5059987;28;20041;-79
2022/12/29 11:00:47;;;;;;;6.55;1.10;;;;;;;10.45;79.41;100214.47;5056419;28;20034;-78
2022/12/29 11:04:00;;;;;;;5.32;1.20;;;;;;;10.45;79.74;100222.38;5067907;28;20116;-82
2022/12/29 11:06:29;;;;;;;8.25;1.63;;;;;;;10.42;80.13;100222.53;5033387;28;20522;-81
2022/12/29 11:09:13;;;;;;;8.60;1.50;;;;;;;10.37;80.37;100227.06;5069828;28;20124;-81
2022/12/29 11:11:40;;;;;;;8.30;1.23;;;;;;;10.37;80.73;100225.34;5045610;28;20053;-81
2022/12/29 11:14:19;;;;;;;6.85;1.20;;;;;;;10.40;80.96;100226.97;5057713;28;20042;-82
2022/12/29 11:16:59;;;;;;;6.47;1.00;;;;;;;10.36;81.08;100235.88;5052725;28;20049;-77
2022/12/29 11:19:33;;;;;;;8.60;1.40;;;;;;;10.36;81.59;100234.13;5047944;28;20038;-77
2022/12/29 11:22:29;;;;;;;6.70;0.90;;;;;;;10.35;81.50;100234.16;5049115;28;20050;-76
2022/12/29 11:25:12;;;;;;;7.32;1.25;;;;;;;10.29;81.62;100239.69;5053276;28;20488;-78
2022/12/29 11:28:00;;;;;;;8.60;1.63;;;;;;;10.31;81.89;100246.59;5046857;28;20033;-78
2022/12/29 11:30:32;;;;;;;4.00;0.95;;;;;;;10.38;81.63;100248.09;5045215;28;20049;-78
2022/12/29 11:33:04;;;;;;;8.77;1.48;;;;;;;10.45;81.04;100239.97;5050223;28;20553;-73
2022/12/29 11:35:35;;;;;;;5.90;1.00;;;;;;;10.47;81.20;100253.97;5048899;28;20103;-76
2022/12/29 11:38:23;;;;;;;63.90;24.88;;;;;;;10.47;80.86;100238.16;5051314;28;20065;-79
2022/12/29 11:40:50;;;;;;;8.23;2.97;;;;;;;10.47;80.67;100256.59;5052216;28;20037;-80
2022/12/29 11:43:34;;;;;;;8.18;2.53;;;;;;;10.34;81.00;100253.53;5053452;28;20044;-83
2022/12/29 11:46:04;;;;;;;7.95;2.63;;;;;;;10.21;81.27;100263.69;5051916;28;20176;-81
2022/12/29 11:48:40;;;;;;;7.50;1.90;;;;;;;10.31;81.35;100259.78;5061174;28;20072;-78
2022/12/29 11:51:11;;;;;;;9.38;1.85;;;;;;;10.30;81.38;100258.06;5057205;28;20037;-82
2022/12/29 11:53:55;;;;;;;6.80;1.75;;;;;;;10.32;81.31;100272.03;5048490;28;20042;-81
2022/12/29 11:56:43;;;;;;;5.80;1.55;;;;;;;10.35;81.23;100285.09;5049985;28;20041;-75
2022/12/29 11:59:33;;;;;;;7.18;1.52;;;;;;;10.28;81.23;100273.06;5048453;28;20034;-82
2022/12/29 12:02:26;;;;;;;9.18;2.80;;;;;;;10.20;81.35;100278.63;5052423;28;20412;-81
2022/12/29 12:05:14;;;;;;;6.25;2.42;;;;;;;10.20;81.09;100286.53;5050161;28;20132;-80
2022/12/29 12:07:49;;;;;;;10.15;1.83;;;;;;;10.23;81.22;100273.22;5052701;28;21135;-76
2022/12/29 12:10:56;;;;;;;9.27;1.65;;;;;;;10.36;80.75;100280.69;5052766;28;20040;-81
2022/12/29 12:14:13;;;;;;;10.82;1.88;;;;;;;10.47;79.95;100288.22;5044273;28;20068;-84
2022/12/29 12:17:31;;;;;;;9.55;1.70;;;;;;;10.52;79.31;100296.78;5043024;28;20057;-81
2022/12/29 12:20:34;;;;;;;7.88;1.25;;;;;;;10.54;78.29;100272.09;5051109;28;20477;-76
2022/12/29 12:23:24;;;;;;;7.50;1.42;;;;;;;10.57;78.22;100300.97;5050653;28;20033;-82
2022/12/29 12:26:21;;;;;;;12.32;1.83;;;;;;;10.62;78.33;100300.78;5053308;28;20041;-77
2022/12/29 12:29:11;;;;;;;9.40;1.48;;;;;;;10.64;78.57;100305.97;5070460;28;20065;-78
2022/12/29 12:31:54;;;;;;;11.32;1.70;;;;;;;10.71;78.38;100302.22;5050633;28;20115;-77
2022/12/29 12:34:44;;;;;;;9.02;1.80;;;;;;;10.75;77.80;100300.31;5048263;28;20040;-77
2022/12/29 12:37:46;;;;;;;9.52;1.65;;;;;;;10.73;77.28;100303.03;5049532;28;20041;-79
2022/12/29 12:40:40;;;;;;;5.95;2.65;;;;;;;10.72;77.85;100314.47;5048685;28;20049;-77
2022/12/29 12:43:40;;;;;;;8.68;1.50;;;;;;;10.81;77.70;100318.50;5054091;28;20045;-78